Time;durP1;ratioP1;P1;durP2;ratioP2;P2;SDS_P1;SDS_P2;PMS_P1;PMS_P2;Temp;Humidity;BMP_temperature;BMP_pressure;BME280_temperature;BME280_humidity;BME280_pressure;Samples;Min_cycle;Max_cycle;Signal;HPM_P1;HPM_P2
2022/09/09 05:01:34;;;;;;;;;6.25;2.75;;;;;15.02;84.72;100722.91;5103074;27;49452;-72
2022/09/09 05:03:59;;;;;;;;;2.00;2.00;;;;;15.16;84.89;100721.19;5068330;27;50974;-72
2022/09/09 05:06:25;;;;;;;;;2.00;1.00;;;;;15.14;84.43;100705.28;5079032;27;49810;-77
2022/09/09 05:08:50;;;;;;;;;3.75;2.50;;;;;15.36;84.06;100719.44;5068159;27;50306;-73
2022/09/09 05:11:20;;;;;;;;;3.50;2.00;;;;;15.67;83.98;100740.63;5069197;28;49878;-73
2022/09/09 05:13:46;;;;;;;;;2.75;2.75;;;;;15.77;82.39;100739.75;5073130;28;49727;-79
2022/09/09 05:16:14;;;;;;;;;2.00;2.00;;;;;15.97;81.24;100775.00;5068400;28;49601;-81
2022/09/09 05:18:40;;;;;;;;;3.75;3.00;;;;;15.94;80.76;100731.78;5073085;27;50510;-73
2022/09/09 05:21:07;;;;;;;;;3.25;2.25;;;;;16.16;80.51;100744.09;5069632;28;49921;-70
2022/09/09 05:23:35;;;;;;;;;3.00;2.00;;;;;16.14;80.13;100713.22;5072995;27;49912;-73
2022/09/09 05:26:01;;;;;;;;;4.00;4.00;;;;;16.39;79.34;100736.06;5073227;28;49635;-73
2022/09/09 05:28:27;;;;;;;;;3.00;3.00;;;;;16.55;78.51;100744.84;5099389;27;52611;-72
2022/09/09 05:30:58;;;;;;;;;1.50;1.00;;;;;16.62;78.06;100749.25;5068289;27;49617;-73
2022/09/09 05:33:25;;;;;;;;;1.50;1.50;;;;;16.44;77.50;100699.84;5069725;27;49642;-74
2022/09/09 05:36:03;;;;;;;;;1.75;1.75;;;;;16.77;77.23;100737.72;5065369;28;49820;-72
2022/09/09 05:38:30;;;;;;;;;2.00;1.00;;;;;16.79;76.86;100728.88;5066412;27;50719;-72
2022/09/09 05:40:56;;;;;;;;;2.50;2.00;;;;;16.73;76.97;100709.47;5064658;27;50096;-72
2022/09/09 05:43:23;;;;;;;;;3.50;1.25;;;;;16.81;76.35;100707.66;5064499;27;50081;-70
2022/09/09 05:45:58;;;;;;;;;3.00;2.00;;;;;16.89;75.79;100716.47;5065222;28;50014;-69
2022/09/09 05:48:23;;;;;;;;;6.00;4.00;;;;;16.99;75.80;100722.59;5064496;28;50867;-71
2022/09/09 05:50:54;;;;;;;;;2.75;1.50;;;;;17.11;75.63;100736.66;5065215;27;50057;-70
2022/09/09 05:53:19;;;;;;;;;5.50;3.00;;;;;17.17;75.29;100733.94;5065509;27;50003;-70
2022/09/09 05:55:45;;;;;;;;;3.00;2.25;;;;;17.20;74.80;100719.78;5066166;27;49805;-73
2022/09/09 05:58:10;;;;;;;;;3.00;3.00;;;;;17.27;74.52;100715.31;5066095;27;49745;-74
2022/09/09 06:00:37;;;;;;;;;0.25;0.25;;;;;17.24;74.31;100718.88;5066029;27;49727;-71
2022/09/09 06:03:03;;;;;;;;;3.00;3.00;;;;;17.40;74.47;100733.78;5065714;27;49924;-71
2022/09/09 06:05:29;;;;;;;;;2.25;1.25;;;;;17.37;74.04;100724.97;5066848;28;49794;-80
2022/09/09 06:07:55;;;;;;;;;1.50;1.50;;;;;17.49;73.93;100740.81;5057170;28;50741;-71
2022/09/09 06:10:20;;;;;;;;;3.50;3.00;;;;;17.50;74.12;100728.41;5072879;27;49755;-72
2022/09/09 06:12:45;;;;;;;;;2.00;2.00;;;;;17.48;73.62;100731.09;5043733;28;50271;-70
2022/09/09 06:15:10;;;;;;;;;2.00;2.00;;;;;17.52;73.55;100719.53;5053067;28;50002;-72
2022/09/09 06:17:36;;;;;;;;;3.50;1.75;;;;;17.57;73.34;100719.53;5043129;28;51171;-72
2022/09/09 06:20:02;;;;;;;;;6.25;2.50;;;;;17.58;72.96;100738.09;5050820;28;49756;-72
2022/09/09 06:22:27;;;;;;;;;2.25;1.75;;;;;17.68;72.95;100738.88;5052504;28;49996;-72
2022/09/09 06:24:53;;;;;;;;;4.50;4.50;;;;;17.69;72.70;100733.59;5052227;28;49998;-72
2022/09/09 06:27:18;;;;;;;;;2.75;2.25;;;;;17.66;72.73;100728.28;5052101;28;50834;-72
2022/09/09 06:29:44;;;;;;;;;2.75;2.75;;;;;17.68;72.94;100718.53;5052210;28;49761;-72
2022/09/09 06:32:09;;;;;;;;;5.00;2.00;;;;;17.86;72.15;100751.16;5051438;28;63229;-72
2022/09/09 06:34:35;;;;;;;;;5.00;2.75;;;;;17.77;71.84;100722.03;5052407;28;50018;-72
2022/09/09 06:37:00;;;;;;;;;2.25;2.25;;;;;17.87;71.88;100735.19;5051749;28;49923;-72
2022/09/09 06:39:26;;;;;;;;;2.00;1.50;;;;;17.79;71.30;100702.53;5051086;28;66959;-72
2022/09/09 06:41:52;;;;;;;;;2.00;2.00;;;;;18.01;71.25;100727.09;5052197;28;50104;-71
2022/09/09 06:44:18;;;;;;;;;3.50;3.00;;;;;18.08;70.72;100736.75;5051969;28;49981;-72
2022/09/09 06:46:44;;;;;;;;;3.75;2.75;;;;;18.25;70.63;100742.78;5051683;28;51578;-72
2022/09/09 06:49:09;;;;;;;;;3.25;1.75;;;;;17.95;70.08;100682.91;5051489;28;49823;-74
2022/09/09 06:51:37;;;;;;;;;3.00;2.00;;;;;18.58;69.80;100757.44;5051450;28;50311;-72
2022/09/09 06:54:03;;;;;;;;;4.00;2.00;;;;;18.72;69.37;100756.41;5052061;28;49646;-72
2022/09/09 06:56:36;;;;;;;;;3.00;3.00;;;;;18.72;68.97;100737.81;5050777;28;49843;-71
2022/09/09 06:59:05;;;;;;;;;1.25;1.25;;;;;18.65;68.08;100720.19;5051773;28;49877;-72
2022/09/09 07:01:35;;;;;;;;;1.00;1.00;;;;;18.73;68.20;100736.94;5083111;27;49646;-72
2022/09/09 07:04:03;;;;;;;;;2.00;2.00;;;;;18.84;68.24;100759.81;5051775;28;49614;-72
2022/09/09 07:06:34;;;;;;;;;4.00;3.00;;;;;18.88;67.78;100753.56;5051245;28;50482;-72
2022/09/09 07:09:08;;;;;;;;;2.50;2.50;;;;;18.88;67.89;100739.38;5037194;28;49689;-72
2022/09/09 07:11:47;;;;;;;;;2.75;2.75;;;;;18.97;67.65;100751.66;5045260;28;49910;-72
2022/09/09 07:14:13;;;;;;;;;3.00;3.00;;;;;18.79;67.33;100727.06;5051849;28;49645;-72
2022/09/09 07:16:41;;;;;;;;;3.00;2.00;;;;;19.03;67.25;100765.78;5051292;28;50743;-72
2022/09/09 07:19:07;;;;;;;;;3.00;1.50;;;;;18.92;66.88;100719.81;5051511;28;49759;-72
2022/09/09 07:21:33;;;;;;;;;2.25;1.00;;;;;19.07;66.15;100740.00;5049917;28;49682;-72
2022/09/09 07:23:59;;;;;;;;;2.00;2.00;;;;;19.06;66.03;100733.78;5050406;28;49709;-72
2022/09/09 07:26:28;;;;;;;;;1.25;1.00;;;;;19.28;65.55;100763.63;5050229;28;50660;-72
2022/09/09 07:28:56;;;;;;;;;3.00;1.75;;;;;19.29;65.49;100762.72;5051164;28;49775;-72
2022/09/09 07:31:27;;;;;;;;;3.00;2.00;;;;;19.43;64.77;100776.72;5051210;28;50140;-72
2022/09/09 07:33:52;;;;;;;;;1.25;1.25;;;;;19.40;65.02;100754.59;5051502;28;50017;-73
2022/09/09 07:36:24;;;;;;;;;3.00;1.75;;;;;19.55;64.59;100761.44;5050805;28;49705;-72
2022/09/09 07:38:58;;;;;;;;;2.75;1.00;;;;;19.47;64.65;100758.91;5051345;28;49657;-72
2022/09/09 07:41:25;;;;;;;;;1.00;1.00;;;;;19.59;64.44;100787.16;5050867;28;50004;-71
2022/09/09 07:43:53;;;;;;;;;3.25;3.25;;;;;19.57;64.50;100789.84;5051148;28;50208;-72
2022/09/09 07:46:20;;;;;;;;;2.50;1.25;;;;;19.66;63.75;100792.34;5050722;28;49980;-72
2022/09/09 07:48:51;;;;;;;;;4.50;2.25;;;;;19.68;63.80;100781.66;5050244;28;49601;-72
2022/09/09 07:51:22;;;;;;;;;1.00;1.00;;;;;19.65;63.62;100757.75;5050893;28;49662;-72
2022/09/09 07:53:48;;;;;;;;;2.00;1.25;;;;;19.85;63.41;100784.94;5051133;28;49967;-72
2022/09/09 07:56:22;;;;;;;;;3.75;2.00;;;;;19.73;63.50;100763.84;5050889;28;50521;-72
2022/09/09 07:58:48;;;;;;;;;1.50;1.50;;;;;19.84;63.50;100784.97;5050807;28;49709;-72
2022/09/09 08:01:20;;;;;;;;;3.50;2.00;;;;;19.52;63.25;100737.53;5050512;28;49977;-72
2022/09/09 08:03:47;;;;;;;;;2.00;0.25;;;;;19.84;63.38;100790.31;5050920;28;50257;-72
2022/09/09 08:06:13;;;;;;;;;2.00;1.00;;;;;19.51;63.28;100717.16;5050161;28;49706;-72
2022/09/09 08:08:41;;;;;;;;;2.75;2.00;;;;;19.99;63.12;100801.59;5050734;28;49845;-72
2022/09/09 08:11:15;;;;;;;;;1.00;1.00;;;;;20.09;62.95;100801.44;5050697;28;49783;-72
2022/09/09 08:13:42;;;;;;;;;1.00;1.00;;;;;20.09;62.30;100788.97;5050774;28;49982;-72
2022/09/09 08:16:16;;;;;;;;;2.00;2.00;;;;;20.15;62.02;100802.19;5048959;28;52898;-71
2022/09/09 08:18:41;;;;;;;;;3.00;2.00;;;;;20.08;62.36;100778.34;5050391;28;49763;-72
2022/09/09 08:21:11;;;;;;;;;3.00;2.00;;;;;19.96;62.04;100774.09;5050090;28;49834;-72
2022/09/09 08:23:38;;;;;;;;;2.00;1.00;;;;;19.91;61.79;100760.88;5049113;28;49866;-72
2022/09/09 08:26:10;;;;;;;;;2.25;1.25;;;;;19.99;61.56;100774.06;5050358;28;49868;-72
2022/09/09 08:28:36;;;;;;;;;1.00;1.00;;;;;20.18;61.15;100794.16;5050496;28;49767;-72
2022/09/09 08:31:14;;;;;;;;;2.00;2.00;;;;;20.30;61.27;100793.03;5049904;28;58689;-72
2022/09/09 08:33:41;;;;;;;;;2.75;1.00;;;;;20.04;60.88;100726.88;5030829;28;49744;-72
2022/09/09 08:36:09;;;;;;;;;2.00;1.00;;;;;20.67;60.57;100811.91;5029823;28;51745;-73
2022/09/09 08:38:34;;;;;;;;;2.25;2.25;;;;;20.55;60.18;100786.34;5030489;28;49835;-72
2022/09/09 08:41:31;;;;;;;;;1.75;1.00;;;;;20.87;59.54;100811.50;5030433;28;49833;-72
2022/09/09 08:44:33;;;;;;;;;3.75;1.50;;;;;20.93;59.25;100815.81;5048068;28;49881;-72
2022/09/09 08:47:39;;;;;;;;;2.00;2.00;;;;;21.01;59.31;100828.09;5030205;28;49635;-72
2022/09/09 08:50:27;;;;;;;;;1.75;1.00;;;;;21.04;58.74;100820.03;5043243;28;49688;-73
2022/09/09 08:53:08;;;;;;;;;2.00;2.00;;;;;21.12;58.47;100823.41;5050139;28;50057;-73
2022/09/09 08:55:55;;;;;;;;;3.50;2.00;;;;;21.16;58.56;100824.22;5050144;28;50425;-73
2022/09/09 08:58:21;;;;;;;;;3.25;1.50;;;;;21.12;58.55;100827.88;5030146;28;50819;-73
2022/09/09 09:01:02;;;;;;;;;1.00;1.00;;;;;21.01;58.53;100808.53;5029947;28;49828;-74
2022/09/09 09:03:36;;;;;;;;;2.00;1.00;;;;;21.23;58.25;100831.22;5058114;28;50055;-74
2022/09/09 09:06:26;;;;;;;;;1.00;1.00;;;;;21.28;58.41;100834.66;5030273;28;49856;-80
2022/09/09 09:09:03;;;;;;;;;1.00;1.00;;;;;21.52;57.68;100830.59;5030156;28;50181;-75
2022/09/09 09:11:39;;;;;;;;;2.75;2.75;;;;;21.77;56.42;100840.69;5042628;28;49909;-75
2022/09/09 09:14:16;;;;;;;;;1.25;0.50;;;;;21.87;56.50;100826.19;5049924;28;49665;-74
2022/09/09 09:16:58;;;;;;;;;0.50;0.50;;;;;21.99;55.68;100828.53;5049744;28;49738;-75
2022/09/09 09:19:26;;;;;;;;;5.50;3.00;;;;;21.74;54.85;100779.31;5047827;28;51408;-75
2022/09/09 09:22:04;;;;;;;;;1.25;1.25;;;;;22.09;54.95;100821.19;5049255;28;49970;-76
2022/09/09 09:24:35;;;;;;;;;1.00;0.25;;;;;21.93;55.04;100761.88;5049398;28;49751;-76
2022/09/09 09:27:14;;;;;;;;;3.00;1.50;;;;;22.51;54.28;100846.81;5045555;28;49993;-76
2022/09/09 09:29:43;;;;;;;;;0.50;0.00;;;;;22.28;53.99;100783.22;5044702;28;50954;-77
2022/09/09 09:32:16;;;;;;;;;1.50;0.50;;;;;22.75;53.61;100847.06;5049373;28;49840;-76
2022/09/09 09:34:41;;;;;;;;;1.00;1.00;;;;;22.34;53.82;100752.78;5049230;28;49633;-77
2022/09/09 09:37:19;;;;;;;;;0.00;0.00;;;;;22.88;53.36;100837.81;5049641;28;49678;-75
2022/09/09 09:39:45;;;;;;;;;0.50;0.50;;;;;22.61;53.13;100782.34;5049096;28;50701;-76
2022/09/09 09:42:17;;;;;;;;;0.50;0.50;;;;;23.11;52.73;100874.63;5048943;28;49791;-74
2022/09/09 09:44:42;;;;;;;;;2.00;0.75;;;;;22.80;52.70;100807.69;5049441;28;49697;-75
2022/09/09 09:47:19;;;;;;;;;0.00;0.00;;;;;23.18;52.12;100872.66;5051153;28;49831;-75
2022/09/09 09:50:19;;;;;;;;;1.00;1.00;;;;;23.16;52.31;100878.03;5052149;28;51077;-75
2022/09/09 09:52:57;;;;;;;;;1.00;1.00;;;;;22.60;51.78;100777.94;5052665;27;49793;-76
2022/09/09 09:55:24;;;;;;;;;0.00;0.00;;;;;22.94;51.75;100832.25;5052614;28;49755;-78
2022/09/09 09:57:49;;;;;;;;;2.50;1.75;;;;;22.72;51.84;100775.78;5053015;28;49833;-75
2022/09/09 10:00:18;;;;;;;;;1.25;0.00;;;;;22.71;51.69;100771.34;5052410;28;50438;-76
2022/09/09 10:02:45;;;;;;;;;3.00;1.00;;;;;23.09;51.65;100841.66;5052758;28;49740;-74
2022/09/09 10:05:19;;;;;;;;;3.75;1.75;;;;;23.09;52.09;100884.50;5052352;28;49874;-75
2022/09/09 10:07:45;;;;;;;;;0.25;0.25;;;;;23.12;51.25;100900.47;5052600;28;49912;-75
2022/09/09 10:10:16;;;;;;;;;1.00;0.75;;;;;23.09;52.01;100873.78;5052141;28;49747;-75
2022/09/09 10:13:05;;;;;;;;;1.25;0.75;;;;;23.17;51.91;100866.41;5052599;28;49783;-75
2022/09/09 10:15:50;;;;;;;;;2.00;2.00;;;;;23.31;51.08;100863.31;5052447;28;49988;-78
2022/09/09 10:18:57;;;;;;;;;6.75;3.25;;;;;23.47;51.05;100842.31;5052669;28;49756;-75
2022/09/09 10:21:46;;;;;;;;;3.75;2.75;;;;;23.64;49.79;100823.91;5048948;28;50499;-75
2022/09/09 10:24:22;;;;;;;;;2.25;1.25;;;;;24.22;49.09;100880.97;5051971;28;49835;-74
2022/09/09 10:27:36;;;;;;;;;6.75;4.00;;;;;24.32;48.70;100882.47;5052294;28;49775;-74
2022/09/09 10:30:50;;;;;;;;;2.00;1.75;;;;;24.32;48.26;100879.78;5045897;27;50107;-73
2022/09/09 10:33:30;;;;;;;;;2.00;2.00;;;;;24.23;48.42;100872.03;5026808;28;51023;-75
2022/09/09 10:36:29;;;;;;;;;0.50;0.50;;;;;23.90;48.81;100871.31;5028963;28;49902;-76
2022/09/09 10:39:16;;;;;;;;;1.25;1.25;;;;;23.94;48.64;100881.91;5030206;28;50081;-75
2022/09/09 10:42:08;;;;;;;;;1.00;1.00;;;;;23.79;49.00;100877.03;5052039;28;49845;-74
2022/09/09 10:44:54;;;;;;;;;2.50;1.25;;;;;23.54;49.59;100858.13;5032610;28;50669;-75
2022/09/09 10:47:19;;;;;;;;;1.75;1.75;;;;;23.83;49.31;100876.00;5064473;27;50047;-82
2022/09/09 10:50:12;;;;;;;;;0.75;0.50;;;;;23.94;49.03;100881.03;5044977;28;49960;-79
2022/09/09 10:52:58;;;;;;;;;0.00;0.00;;;;;23.56;48.23;100791.09;5047522;28;50082;-74
2022/09/09 10:55:33;;;;;;;;;1.00;1.00;;;;;23.74;47.71;100787.84;5051627;28;50753;-75
2022/09/09 10:58:02;;;;;;;;;3.50;2.00;;;;;24.17;48.32;100878.47;5051746;28;49852;-73
2022/09/09 11:00:38;;;;;;;;;1.00;1.00;;;;;24.28;48.12;100884.31;5051370;28;49869;-74
2022/09/09 11:03:04;;;;;;;;;1.00;1.00;;;;;24.27;48.17;100847.72;5051625;28;49893;-79
2022/09/09 11:05:51;;;;;;;;;1.00;1.00;;;;;24.16;47.86;100814.13;5051403;28;50970;-82
2022/09/09 11:08:26;;;;;;;;;0.75;0.75;;;;;24.83;47.57;100881.56;5047749;28;49913;-84
2022/09/09 11:11:17;;;;;;;;;1.25;1.00;;;;;24.78;46.58;100852.19;5052403;28;49857;-80
2022/09/09 11:13:51;;;;;;;;;0.00;0.00;;;;;24.77;46.20;100828.97;5067560;28;49940;-84
2022/09/09 11:16:57;;;;;;;;;1.00;1.00;;;;;24.97;46.13;100884.59;5032273;28;49935;-78
2022/09/09 11:19:38;;;;;;;;;1.00;1.00;;;;;24.70;46.72;100875.75;5031750;28;49752;-77
2022/09/09 11:22:27;;;;;;;;;1.00;1.00;;;;;24.49;47.57;100881.88;5045104;28;49822;-72
2022/09/09 11:25:10;;;;;;;;;2.00;1.00;;;;;24.41;49.17;100890.19;5051354;28;49785;-73
2022/09/09 11:28:04;;;;;;;;;4.25;2.25;;;;;24.49;48.50;100863.97;5050937;28;50714;-73
2022/09/09 11:30:51;;;;;;;;;10.50;9.25;;;;;24.71;46.83;100869.47;5031692;28;49854;-73
2022/09/09 11:33:33;;;;;;;;;7.00;5.00;;;;;24.75;46.51;100868.41;5044777;28;49813;-77
2022/09/09 11:36:40;;;;;;;;;15.00;13.00;;;;;24.10;46.33;100776.78;5050939;28;50083;-78
2022/09/09 11:39:17;;;;;;;;;10.25;9.25;;;;;24.64;47.12;100886.72;5049786;28;50489;-73
2022/09/09 11:41:42;;;;;;;;;9.00;8.25;;;;;24.53;47.00;100892.47;5038062;28;49875;-73
2022/09/09 11:44:27;;;;;;;;;6.50;6.50;;;;;24.32;47.29;100878.88;5052214;28;49873;-82
2022/09/09 11:46:52;;;;;;;;;5.00;5.00;;;;;24.07;47.83;100854.69;5041990;28;50271;-75
2022/09/09 11:49:29;;;;;;;;;6.25;6.00;;;;;24.19;48.01;100895.38;5054048;28;51720;-72
2022/09/09 11:51:54;;;;;;;;;7.50;6.25;;;;;23.93;47.76;100873.88;5054745;28;49800;-70
2022/09/09 11:54:29;;;;;;;;;1.25;0.50;;;;;24.16;47.93;100902.66;5046703;28;49807;-72
2022/09/09 11:56:54;;;;;;;;;2.75;2.75;;;;;24.05;48.21;100868.16;5058275;28;49835;-77
2022/09/09 11:59:23;;;;;;;;;4.50;4.00;;;;;24.15;48.16;100893.72;5070296;28;51663;-77
2022/09/09 12:02:02;;;;;;;;;5.50;3.75;;;;;23.70;47.95;100824.59;5052345;28;49894;-77
2022/09/09 12:04:30;;;;;;;;;1.75;1.75;;;;;;;;5058207;28;49749;-74
2022/09/09 12:06:59;;;;;;;;;8.50;7.00;;;;;23.91;49.87;100902.56;5054140;28;49691;-75
2022/09/09 12:09:32;;;;;;;;;6.25;4.25;;;;;23.85;51.61;100889.38;5054294;28;50378;-76
2022/09/09 12:12:12;;;;;;;;;10.50;8.75;;;;;24.11;50.97;100921.56;5060694;28;49796;-76
2022/09/09 12:14:43;;;;;;;;;3.75;3.75;;;;;24.30;50.74;100921.84;5052118;28;49948;-74
2022/09/09 12:17:14;;;;;;;;;3.25;2.00;;;;;24.43;51.21;100935.78;5053778;28;49754;-82
2022/09/09 12:19:39;;;;;;;;;1.75;1.75;;;;;24.10;50.67;100862.63;5055397;28;49946;-74
2022/09/09 12:22:19;;;;;;;;;2.50;1.25;;;;;24.32;49.90;100940.59;5053429;28;50060;-77
2022/09/09 12:24:57;;;;;;;;;5.75;5.00;;;;;24.07;51.27;100930.66;5053126;28;49983;-76
2022/09/09 12:27:34;;;;;;;;;4.75;4.25;;;;;24.01;52.74;100928.16;5059417;28;49683;-74
2022/09/09 12:30:11;;;;;;;;;2.50;2.50;;;;;23.71;53.59;100903.19;5055852;28;49639;-75
2022/09/09 12:32:37;;;;;;;;;1.00;1.00;;;;;23.68;53.99;100922.06;5053667;28;49975;-73
2022/09/09 12:35:08;;;;;;;;;1.75;1.75;;;;;23.59;54.05;100930.38;5050564;28;49849;-74
2022/09/09 12:37:46;;;;;;;;;5.00;4.25;;;;;23.41;54.64;100905.84;5047814;28;49751;-74
2022/09/09 12:40:17;;;;;;;;;4.75;3.00;;;;;23.49;55.20;100932.41;5062536;28;49926;-77
2022/09/09 12:42:43;;;;;;;;;4.00;4.00;;;;;23.06;54.85;100879.22;5068355;28;49445;-74
2022/09/09 12:45:23;;;;;;;;;1.00;1.00;;;;;23.34;56.08;100943.56;5066297;28;49383;-76
2022/09/09 12:48:11;;;;;;;;;2.50;2.50;;;;;23.24;56.56;100950.13;5066654;28;49782;-74
2022/09/09 12:50:43;;;;;;;;;2.25;1.75;;;;;22.99;57.72;100937.44;5063142;28;49969;-77
2022/09/09 12:53:15;;;;;;;;;2.00;2.00;;;;;22.96;58.11;100941.97;5057559;28;49839;-73
2022/09/09 12:55:56;;;;;;;;;1.75;1.75;;;;;23.03;58.60;100955.16;5039555;28;49716;-73
2022/09/09 12:58:21;;;;;;;;;2.75;1.75;;;;;23.05;60.17;100944.41;5040811;28;49848;-76
2022/09/09 13:00:58;;;;;;;;;4.50;2.25;;;;;23.10;59.20;100943.38;5049040;28;50646;-74
2022/09/09 13:03:24;;;;;;;;;1.50;1.50;;;;;23.23;59.35;100968.00;5063076;28;49657;-73
2022/09/09 13:05:51;;;;;;;;;3.00;2.75;;;;;23.12;59.88;100941.50;5063671;28;49675;-70
2022/09/09 13:08:20;;;;;;;;;2.25;2.25;;;;;23.02;59.78;100915.91;5060218;28;49744;-70
2022/09/09 13:11:02;;;;;;;;;3.00;2.50;;;;;23.34;60.15;100954.28;5091925;27;52114;-70
2022/09/09 13:13:32;;;;;;;;;3.50;2.25;;;;;23.40;60.32;100949.63;5062427;28;49286;-70
2022/09/09 13:16:00;;;;;;;;;2.50;2.50;;;;;23.65;59.65;100971.28;5066588;28;49350;-70
2022/09/09 13:18:32;;;;;;;;;1.25;1.25;;;;;23.61;59.96;100941.91;5068125;28;49396;-69
2022/09/09 13:20:58;;;;;;;;;3.25;1.25;;;;;23.91;58.60;100977.63;5067283;28;49934;-71
2022/09/09 13:23:27;;;;;;;;;4.50;2.75;;;;;23.86;57.91;100964.38;5071222;28;49302;-70
2022/09/09 13:26:01;;;;;;;;;3.00;3.00;;;;;23.79;57.83;100949.41;5069703;28;49791;-69
2022/09/09 13:28:29;;;;;;;;;1.00;1.00;;;;;23.58;58.08;100953.59;5071502;28;50134;-69
2022/09/09 13:31:02;;;;;;;;;2.00;2.00;;;;;23.56;57.77;100971.50;5071168;28;50149;-70
2022/09/09 13:33:38;;;;;;;;;2.00;2.00;;;;;23.39;58.00;100968.44;5064203;28;49309;-70
2022/09/09 13:36:05;;;;;;;;;1.75;0.75;;;;;23.35;57.50;100988.19;5071079;28;49582;-70
2022/09/09 13:38:52;;;;;;;;;0.50;0.50;;;;;23.17;58.74;100969.97;5068159;28;49561;-71
2022/09/09 13:41:24;;;;;;;;;1.50;1.50;;;;;23.14;58.90;100979.84;5070920;28;50513;-70
2022/09/09 13:43:51;;;;;;;;;2.25;1.75;;;;;22.81;59.12;100938.78;5071222;28;49434;-70
2022/09/09 13:46:40;;;;;;;;;2.75;2.50;;;;;22.99;59.14;100984.75;5071010;28;49241;-71
2022/09/09 13:49:09;;;;;;;;;2.75;1.50;;;;;22.98;59.26;100970.47;5048526;28;49437;-69
2022/09/09 13:51:40;;;;;;;;;3.00;2.00;;;;;22.89;59.56;100929.69;5071734;28;51306;-70
2022/09/09 13:54:09;;;;;;;;;1.25;1.25;;;;;23.34;58.74;100955.16;5051452;28;49452;-71
2022/09/09 13:56:36;;;;;;;;;2.00;2.00;;;;;23.31;57.84;100917.75;5051363;28;49305;-72
2022/09/09 13:59:04;;;;;;;;;1.50;1.25;;;;;23.53;57.10;100952.81;5057162;28;49576;-70
2022/09/09 14:01:29;;;;;;;;;2.00;2.00;;;;;23.35;57.10;100905.16;5070094;28;49970;-70
2022/09/09 14:03:55;;;;;;;;;1.50;1.50;;;;;23.63;57.23;100954.34;5070613;28;49496;-70
2022/09/09 14:06:24;;;;;;;;;1.25;1.25;;;;;23.28;56.66;100922.34;5070300;28;49664;-70
2022/09/09 14:08:50;;;;;;;;;3.25;2.00;;;;;23.42;57.39;100965.66;5070561;28;49437;-71
2022/09/09 14:11:16;;;;;;;;;1.75;1.75;;;;;23.49;57.19;100969.94;5069939;28;50088;-74
2022/09/09 14:13:41;;;;;;;;;2.50;1.75;;;;;23.46;57.63;100962.00;5070106;28;49474;-71
2022/09/09 14:16:06;;;;;;;;;3.00;2.00;;;;;23.10;57.11;100896.97;5070524;28;49320;-72
2022/09/09 14:18:32;;;;;;;;;3.75;1.75;;;;;23.23;57.09;100926.94;5070568;28;49396;-72
2022/09/09 14:20:58;;;;;;;;;1.50;1.50;;;;;23.13;57.16;100915.59;5067059;28;49672;-72
2022/09/09 14:23:24;;;;;;;;;2.75;2.75;;;;;23.30;57.28;100941.91;5058761;28;49520;-71
2022/09/09 14:25:50;;;;;;;;;2.50;1.50;;;;;23.29;56.28;100935.69;5070129;28;49480;-69
2022/09/09 14:28:16;;;;;;;;;2.75;2.00;;;;;23.32;56.99;100945.41;5070769;28;49232;-80
2022/09/09 14:30:44;;;;;;;;;3.00;2.00;;;;;23.49;57.00;100952.97;5070261;28;49392;-72
2022/09/09 14:33:11;;;;;;;;;3.00;1.25;;;;;23.13;56.90;100891.50;5069373;28;49457;-73
2022/09/09 14:35:36;;;;;;;;;1.25;1.25;;;;;23.51;56.41;100927.88;5069934;28;49540;-72
2022/09/09 14:38:03;;;;;;;;;1.00;0.00;;;;;23.53;55.97;100917.13;5069556;28;49512;-78
2022/09/09 14:40:29;;;;;;;;;2.75;2.75;;;;;23.81;55.93;100944.00;5068887;28;49977;-77
2022/09/09 14:42:56;;;;;;;;;1.00;1.00;;;;;23.89;55.42;100941.94;5068215;28;49440;-78
2022/09/09 14:45:21;;;;;;;;;4.25;2.75;;;;;23.96;54.77;100944.41;5069448;28;49639;-73
2022/09/09 14:47:47;;;;;;;;;3.50;3.50;;;;;23.56;54.28;100875.06;5069141;28;49506;-75
2022/09/09 14:50:13;;;;;;;;;0.75;0.75;;;;;24.01;54.54;100963.00;5056284;28;51726;-73
2022/09/09 14:52:39;;;;;;;;;1.00;1.00;;;;;23.92;54.40;100953.44;5054456;28;49995;-76
2022/09/09 14:55:05;;;;;;;;;1.75;1.75;;;;;23.87;54.67;100950.06;5057747;28;50099;-75
2022/09/09 14:57:30;;;;;;;;;3.00;3.00;;;;;23.85;54.43;100964.44;5057763;28;49684;-74
2022/09/09 14:59:56;;;;;;;;;1.25;0.75;;;;;23.62;54.82;100947.22;5055705;28;50598;-76
2022/09/09 15:02:21;;;;;;;;;2.25;1.50;;;;;23.36;54.97;100915.84;5060264;27;49830;-73
2022/09/09 15:04:47;;;;;;;;;3.50;0.00;;;;;23.59;55.15;100958.06;5053074;28;49739;-75
2022/09/09 15:07:12;;;;;;;;;2.00;2.00;;;;;23.16;55.15;100894.09;5051563;28;50592;-80
2022/09/09 15:09:38;;;;;;;;;1.50;1.50;;;;;23.24;55.32;100904.59;5064676;28;50209;-77
2022/09/09 15:12:04;;;;;;;;;0.50;0.50;;;;;23.05;55.01;100864.94;5066459;28;49730;-75
2022/09/09 15:14:30;;;;;;;;;2.00;1.00;;;;;23.23;54.99;100889.44;5062095;28;49516;-77
2022/09/09 15:16:55;;;;;;;;;0.75;0.75;;;;;23.74;55.40;100923.66;5056522;28;49531;-73
2022/09/09 15:19:21;;;;;;;;;1.00;1.00;;;;;24.02;54.86;100927.22;5059040;28;49689;-71
2022/09/09 15:21:47;;;;;;;;;2.25;1.00;;;;;24.20;54.18;100933.78;5060336;28;64562;-74
2022/09/09 15:24:13;;;;;;;;;4.75;1.25;;;;;23.94;53.81;100881.91;5064281;28;49606;-77
2022/09/09 15:26:39;;;;;;;;;0.75;0.75;;;;;24.28;52.64;100921.88;5065673;28;49588;-74
2022/09/09 15:29:05;;;;;;;;;0.50;0.25;;;;;24.28;52.40;100937.97;5062012;28;49821;-71
2022/09/09 15:31:31;;;;;;;;;0.50;0.50;;;;;23.87;52.15;100917.00;5059184;28;49728;-76
2022/09/09 15:34:02;;;;;;;;;0.50;0.50;;;;;23.85;53.19;100935.81;5062223;27;49773;-76
2022/09/09 15:36:33;;;;;;;;;1.75;0.00;;;;;23.77;53.83;100950.38;5060001;28;49907;-73
2022/09/09 15:38:59;;;;;;;;;1.75;1.75;;;;;23.56;53.64;100946.53;5082459;27;51135;-77
2022/09/09 15:41:25;;;;;;;;;2.25;1.00;;;;;23.57;53.86;100977.75;5060750;28;49791;-77
2022/09/09 15:43:54;;;;;;;;;4.00;2.00;;;;;23.39;54.34;100960.41;5060057;28;50755;-73
2022/09/09 15:46:28;;;;;;;;;1.00;0.00;;;;;23.37;54.64;100965.81;5056007;28;49970;-76
2022/09/09 15:48:57;;;;;;;;;0.00;0.00;;;;;23.26;55.12;100965.25;5068054;28;50943;-76
2022/09/09 15:51:25;;;;;;;;;3.75;1.00;;;;;23.22;55.23;100958.19;5041574;28;49989;-74
2022/09/09 15:53:55;;;;;;;;;1.25;1.25;;;;;22.83;55.55;100907.47;5036833;28;49756;-73
2022/09/09 15:56:21;;;;;;;;;1.25;1.25;;;;;23.01;55.56;100940.06;5043274;28;50024;-74
2022/09/09 15:58:46;;;;;;;;;2.00;2.00;;;;;22.98;56.05;100949.06;5049459;28;50798;-71
2022/09/09 16:01:12;;;;;;;;;1.00;1.00;;;;;22.66;56.14;100887.44;5049998;28;58629;-74
2022/09/09 16:03:42;;;;;;;;;2.00;1.00;;;;;22.92;56.29;100943.88;5051516;28;49924;-72
2022/09/09 16:06:08;;;;;;;;;1.00;1.00;;;;;22.99;56.51;100964.22;5059898;28;50287;-71
2022/09/09 16:08:35;;;;;;;;;0.50;0.50;;;;;22.77;57.91;100947.78;5051805;28;50465;-73
2022/09/09 16:11:14;;;;;;;;;1.50;1.00;;;;;22.65;58.76;100939.22;5052052;28;50000;-71
2022/09/09 16:13:40;;;;;;;;;2.75;2.00;;;;;22.81;59.81;100975.38;5049069;28;50027;-71
2022/09/09 16:16:06;;;;;;;;;2.25;1.75;;;;;22.58;59.88;100943.84;5049930;28;49838;-73
2022/09/09 16:18:40;;;;;;;;;0.00;0.00;;;;;22.62;59.81;100961.59;5063579;28;50747;-74
2022/09/09 16:21:07;;;;;;;;;0.50;0.50;;;;;22.62;60.34;100980.31;5053210;28;49931;-75
2022/09/09 16:23:34;;;;;;;;;1.75;1.50;;;;;22.43;60.54;100973.66;5075088;28;50145;-76
2022/09/09 16:26:00;;;;;;;;;0.75;0.75;;;;;22.10;61.45;100932.56;5052525;28;50002;-72
2022/09/09 16:28:26;;;;;;;;;1.50;1.50;;;;;22.30;61.73;100985.59;5052901;28;49829;-73
2022/09/09 16:30:51;;;;;;;;;2.50;2.50;;;;;22.27;62.64;100982.06;5052819;28;49809;-70
2022/09/09 16:33:17;;;;;;;;;1.00;1.00;;;;;22.25;62.45;100989.22;5053429;28;50257;-76
2022/09/09 16:35:43;;;;;;;;;2.00;1.00;;;;;22.24;62.92;100986.59;5051408;28;49865;-75
2022/09/09 16:38:09;;;;;;;;;1.25;1.25;;;;;22.22;63.19;100969.72;5051843;28;49819;-75
2022/09/09 16:40:36;;;;;;;;;1.00;1.00;;;;;22.40;63.11;100988.00;5051393;28;49990;-76
2022/09/09 16:43:01;;;;;;;;;0.25;0.25;;;;;22.32;63.39;100957.00;5044484;28;50099;-75
2022/09/09 16:45:27;;;;;;;;;1.75;1.00;;;;;22.23;62.75;100929.56;5053990;28;49668;-72
2022/09/09 16:47:53;;;;;;;;;1.00;1.00;;;;;22.46;62.30;100974.47;5054702;28;50662;-74